Time;durP1;ratioP1;P1;durP2;ratioP2;P2;SDS_P1;SDS_P2;PMS_P1;PMS_P2;Temp;Humidity;BMP_temperature;BMP_pressure;BME280_temperature;BME280_humidity;BME280_pressure;Samples;Min_cycle;Max_cycle;Signal;HPM_P1;HPM_P2
2021/06/24 02:47:24;;;;;;;4.53;1.85;;;14.50;99.90;;;;;;5312449;23;89422;-77
2021/06/24 02:49:50;;;;;;;3.08;1.90;;;14.50;99.90;;;;;;4883843;28;87807;-78
2021/06/24 02:52:16;;;;;;;2.50;2.30;;;14.50;99.90;;;;;;4884665;28;87023;-78
2021/06/24 02:54:42;;;;;;;2.35;2.25;;;;;;;;;;4884531;28;86977;-78
2021/06/24 02:57:08;;;;;;;2.70;2.50;;;14.60;99.90;;;;;;4884236;28;86938;-77
2021/06/24 02:59:34;;;;;;;2.70;2.17;;;14.40;99.90;;;;;;4883358;28;87328;-78
2021/06/24 03:02:00;;;;;;;2.95;2.47;;;14.60;99.90;;;;;;4884042;28;86973;-78
2021/06/24 03:04:26;;;;;;;2.80;2.60;;;14.40;99.90;;;;;;4882085;28;87490;-77
2021/06/24 03:06:52;;;;;;;2.70;2.50;;;14.40;99.90;;;;;;4884408;28;86449;-77
2021/06/24 03:09:19;;;;;;;3.00;2.80;;;14.30;99.90;;;;;;4884316;28;86922;-77
2021/06/24 03:11:45;;;;;;;2.78;2.58;;;14.40;99.90;;;;;;4883952;28;87095;-77
2021/06/24 03:14:11;;;;;;;2.78;2.35;;;14.40;99.90;;;;;;4883557;28;90264;-77
2021/06/24 03:16:37;;;;;;;3.28;2.97;;;14.30;99.90;;;;;;4884210;28;88010;-77
2021/06/24 03:19:04;;;;;;;3.05;2.75;;;14.30;99.90;;;;;;4882291;28;86965;-77
2021/06/24 03:21:30;;;;;;;3.38;2.85;;;14.30;99.90;;;;;;4882770;28;87131;-78
2021/06/24 03:23:56;;;;;;;6.75;3.47;;;14.70;99.90;;;;;;4883069;28;87159;-78
2021/06/24 03:26:21;;;;;;;4.93;2.50;;;14.70;99.90;;;;;;4883016;28;86990;-78
2021/06/24 03:28:47;;;;;;;3.13;2.92;;;14.00;99.90;;;;;;4879320;28;86986;-78
2021/06/24 03:31:13;;;;;;;4.10;2.80;;;14.30;99.90;;;;;;4875340;28;85700;-78
2021/06/24 03:33:39;;;;;;;4.25;2.70;;;14.30;99.90;;;;;;4881827;28;86900;-78
2021/06/24 03:36:23;;;;;;;3.22;2.92;;;14.20;99.90;;;;;;4883465;28;86910;-76
2021/06/24 03:38:49;;;;;;;2.60;2.30;;;14.90;99.90;;;;;;4884358;28;87817;-77
2021/06/24 03:41:23;;;;;;;1.98;1.85;;;15.10;99.90;;;;;;4884626;28;86953;-77
2021/06/24 03:43:50;;;;;;;2.13;2.03;;;;;;;;;;4883746;28;88636;-76
2021/06/24 03:46:16;;;;;;;2.00;1.90;;;14.10;99.90;;;;;;4882278;28;86970;-76
2021/06/24 03:48:41;;;;;;;2.10;2.00;;;13.30;99.90;;;;;;4886662;28;86921;-76
2021/06/24 03:51:08;;;;;;;2.25;2.15;;;;;;;;;;4882764;28;86805;-78
2021/06/24 03:53:34;;;;;;;3.40;2.40;;;14.80;99.90;;;;;;4884282;28;87156;-77
2021/06/24 03:56:01;;;;;;;2.55;2.35;;;;;;;;;;4873967;28;87536;-77
2021/06/24 03:58:27;;;;;;;3.72;2.00;;;;;;;;;;4871396;29;86716;-77
2021/06/24 04:01:19;;;;;;;2.65;2.30;;;13.30;99.90;;;;;;4872420;28;86735;-77
2021/06/24 04:03:44;;;;;;;3.40;1.80;;;14.90;99.90;;;;;;4886413;28;87683;-77
2021/06/24 04:06:10;;;;;;;2.20;2.10;;;14.70;99.90;;;;;;4889981;28;87022;-77
2021/06/24 04:08:36;;;;;;;2.10;2.00;;;15.30;99.90;;;;;;4890534;28;86254;-77
2021/06/24 04:11:03;;;;;;;2.35;2.25;;;14.00;99.90;;;;;;4890658;28;87336;-77
2021/06/24 04:13:29;;;;;;;3.05;2.05;;;14.10;99.90;;;;;;4885870;28;90204;-77
2021/06/24 04:15:55;;;;;;;2.78;2.58;;;13.90;99.90;;;;;;4887573;28;89616;-77
2021/06/24 04:18:21;;;;;;;2.20;2.10;;;15.30;99.90;;;;;;4889656;28;86890;-77
2021/06/24 04:20:47;;;;;;;2.38;2.17;;;14.20;99.90;;;;;;4890769;28;86320;-78
2021/06/24 04:23:13;;;;;;;2.25;2.05;;;14.30;99.90;;;;;;4887369;28;87681;-77
2021/06/24 04:29:01;;;;;;;2.17;2.08;;;14.00;99.90;;;;;;4885345;28;88036;-78
2021/06/24 04:31:27;;;;;;;1.90;1.80;;;13.80;99.90;;;;;;4875852;28;86941;-78
2021/06/24 04:33:52;;;;;;;2.47;2.28;;;14.70;99.90;;;;;;4885483;28;87191;-78
2021/06/24 04:36:18;;;;;;;2.47;2.00;;;14.50;99.90;;;;;;4883010;28;86884;-78
2021/06/24 04:38:44;;;;;;;2.10;2.00;;;14.10;99.90;;;;;;4884520;28;86928;-77
2021/06/24 04:41:09;;;;;;;2.20;2.10;;;16.10;99.90;;;;;;4875757;28;86990;-77
2021/06/24 04:43:38;;;;;;;2.15;1.90;;;14.80;99.90;;;;;;4881723;28;87140;-77
2021/06/24 04:46:04;;;;;;;2.30;1.80;;;;;;;;;;4884653;28;86954;-76
2021/06/24 04:48:30;;;;;;;1.98;1.88;;;15.10;99.90;;;;;;4885828;28;86870;-77
2021/06/24 04:50:55;;;;;;;2.88;2.10;;;14.80;99.90;;;;;;4889200;28;86903;-78
2021/06/24 04:53:22;;;;;;;4.13;2.05;;;;;;;;;;4892518;28;87797;-78
2021/06/24 04:55:47;;;;;;;1.92;1.83;;;14.70;99.90;;;;;;4891988;28;87860;-78
2021/06/24 04:58:13;;;;;;;2.22;2.13;;;16.60;99.90;;;;;;4889617;28;87172;-78
2021/06/24 05:00:39;;;;;;;2.20;2.05;;;15.80;99.90;;;;;;4889570;28;86403;-78
2021/06/24 05:03:09;;;;;;;2.40;2.00;;;16.70;99.90;;;;;;4888088;28;87080;-78
2021/06/24 05:05:53;;;;;;;1.63;1.53;;;17.90;99.90;;;;;;4879685;28;88037;-78
2021/06/24 05:08:24;;;;;;;1.80;1.70;;;16.30;99.90;;;;;;4889455;28;86263;-81
2021/06/24 05:10:50;;;;;;;1.67;1.58;;;15.90;99.90;;;;;;4892342;28;86057;-80
2021/06/24 05:13:16;;;;;;;2.90;2.08;;;16.00;99.90;;;;;;4893643;28;87666;-81
2021/06/24 05:16:23;;;;;;;2.15;1.98;;;16.00;99.90;;;;;;4893139;28;87465;-82
2021/06/24 05:18:49;;;;;;;1.85;1.70;;;16.10;99.90;;;;;;4895278;28;87750;-82
2021/06/24 05:21:16;;;;;;;1.60;1.50;;;16.10;99.90;;;;;;4890974;28;86979;-82
2021/06/24 05:23:44;;;;;;;2.38;1.73;;;16.20;99.90;;;;;;4894499;28;86413;-82
2021/06/24 05:26:11;;;;;;;2.17;2.00;;;16.30;99.90;;;;;;4894750;28;87493;-81
2021/06/24 05:28:36;;;;;;;2.30;2.10;;;16.40;99.90;;;;;;4896950;28;86760;-81
2021/06/24 05:31:03;;;;;;;1.80;1.70;;;16.40;99.90;;;;;;4892220;28;86896;-79
2021/06/24 05:33:29;;;;;;;1.77;1.67;;;16.50;99.90;;;;;;4882002;28;87160;-81
2021/06/24 05:35:55;;;;;;;2.00;1.67;;;16.50;99.90;;;;;;4889224;28;89908;-81
2021/06/24 05:38:21;;;;;;;2.00;1.90;;;16.60;99.90;;;;;;4895803;28;86845;-81
2021/06/24 05:40:49;;;;;;;2.08;1.83;;;16.70;99.90;;;;;;4892695;28;87627;-82
2021/06/24 05:43:16;;;;;;;2.72;2.20;;;16.80;99.90;;;;;;4892195;28;88228;-83
2021/06/24 05:45:42;;;;;;;2.00;1.90;;;16.80;99.90;;;;;;4892246;28;88325;-82
2021/06/24 05:48:08;;;;;;;2.30;1.70;;;16.90;99.90;;;;;;4893359;28;86466;-81
2021/06/24 05:50:34;;;;;;;2.10;2.00;;;17.00;99.90;;;;;;4890837;28;87186;-81
2021/06/24 05:53:00;;;;;;;2.92;2.53;;;17.10;99.90;;;;;;4890760;28;87430;-81
2021/06/24 05:58:12;;;;;;;2.05;1.70;;;17.20;99.90;;;;;;4887329;28;86914;-82
2021/06/24 06:00:39;;;;;;;4.28;1.63;;;17.30;99.90;;;;;;4891245;28;86046;-82
2021/06/24 06:03:05;;;;;;;3.53;1.83;;;17.40;99.90;;;;;;4891730;28;88050;-83
2021/06/24 06:05:35;;;;;;;2.05;1.60;;;17.50;99.90;;;;;;4883977;28;87160;-82
2021/06/24 06:08:03;;;;;;;2.78;1.75;;;17.60;99.90;;;;;;4886162;28;87863;-82
2021/06/24 06:10:29;;;;;;;2.08;1.95;;;17.60;99.90;;;;;;4885876;28;86602;-81
2021/06/24 06:12:55;;;;;;;1.90;1.80;;;17.80;99.90;;;;;;4890810;28;87772;-80
2021/06/24 06:15:21;;;;;;;12.23;2.55;;;17.90;99.90;;;;;;4893331;28;86889;-80
2021/06/24 06:18:42;;;;;;;2.05;1.88;;;17.90;99.90;;;;;;4891850;28;86567;-82
2021/06/24 06:21:07;;;;;;;1.80;1.70;;;17.90;99.90;;;;;;4891690;28;86691;-80
2021/06/24 06:23:34;;;;;;;2.08;1.92;;;18.00;99.90;;;;;;4894536;28;86700;-81
2021/06/24 06:25:59;;;;;;;2.10;2.00;;;18.10;99.90;;;;;;4891452;28;87091;-80
2021/06/24 06:28:26;;;;;;;1.60;1.50;;;18.20;99.90;;;;;;4892066;28;86696;-82
2021/06/24 06:30:54;;;;;;;3.97;3.42;;;18.20;99.90;;;;;;4908835;28;86983;-82
2021/06/24 06:33:21;;;;;;;1.98;1.83;;;18.30;99.90;;;;;;4893872;28;87785;-81
2021/06/24 06:35:47;;;;;;;1.90;1.80;;;18.40;99.90;;;;;;4906078;28;89249;-81
2021/06/24 06:38:14;;;;;;;2.13;1.75;;;18.50;99.90;;;;;;4893175;28;86720;-81
2021/06/24 06:40:40;;;;;;;2.28;1.92;;;18.60;99.90;;;;;;4894477;28;87150;-81
2021/06/24 06:43:06;;;;;;;2.00;1.90;;;18.70;99.90;;;;;;4893660;28;87581;-80
2021/06/24 06:45:33;;;;;;;2.33;1.80;;;18.70;99.90;;;;;;4892990;28;86709;-81
2021/06/24 06:47:59;;;;;;;2.13;1.92;;;18.80;99.90;;;;;;4893558;28;86810;-81
2021/06/24 06:53:47;;;;;;;1.80;1.70;;;19.10;99.90;;;;;;4890037;28;87159;-81
2021/06/24 06:56:12;;;;;;;2.10;1.60;;;19.30;99.90;;;;;;4893269;28;87892;-82
2021/06/24 06:58:38;;;;;;;1.60;1.50;;;19.40;99.90;;;;;;4890775;28;87227;-82
2021/06/24 07:01:04;;;;;;;1.90;1.67;;;19.50;99.90;;;;;;4892545;28;86981;-81
2021/06/24 07:03:30;;;;;;;1.90;1.80;;;19.80;99.90;;;;;;4894485;28;86633;-82
2021/06/24 07:05:56;;;;;;;1.60;1.50;;;20.10;99.90;;;;;;4891636;28;87793;-82
2021/06/24 07:15:06;;;;;;;1.73;1.63;;;21.20;96.80;;;;;;4891041;28;87063;-82
2021/06/24 07:18:03;;;;;;;2.10;2.00;;;21.50;96.50;;;;;;4892558;28;87376;-82
2021/06/24 07:20:29;;;;;;;2.40;2.20;;;21.80;97.20;;;;;;4892009;28;86837;-83
2021/06/24 07:26:17;;;;;;;3.13;2.45;;;21.80;97.30;;;;;;4891587;28;87676;-83
2021/06/24 07:28:43;;;;;;;3.95;3.50;;;;;;;;;;4892150;28;87956;-82
2021/06/24 07:31:09;;;;;;;2.95;2.20;;;21.80;97.50;;;;;;4897745;28;86834;-82
2021/06/24 07:33:35;;;;;;;2.35;2.17;;;21.80;97.70;;;;;;4910393;28;87047;-82
2021/06/24 07:36:01;;;;;;;3.83;2.22;;;22.00;97.70;;;;;;4896592;28;87186;-81
2021/06/24 07:38:28;;;;;;;2.65;1.80;;;22.30;96.90;;;;;;4896726;28;88193;-83
2021/06/24 07:40:54;;;;;;;3.10;2.08;;;22.40;95.10;;;;;;4901960;28;86391;-82
2021/06/24 07:43:21;;;;;;;2.10;1.92;;;22.30;95.40;;;;;;4895934;28;85968;-83
2021/06/24 07:45:47;;;;;;;4.22;3.92;;;22.50;97.80;;;;;;4899863;28;87070;-82
2021/06/24 07:48:12;;;;;;;2.08;1.98;;;22.50;95.90;;;;;;4900874;28;87581;-84
2021/06/24 07:50:38;;;;;;;1.98;1.80;;;22.60;96.20;;;;;;4899947;28;87230;-83
2021/06/24 07:56:26;;;;;;;2.08;1.90;;;23.20;94.70;;;;;;4894577;28;87106;-82
2021/06/24 07:58:53;;;;;;;2.25;2.05;;;23.00;94.80;;;;;;4894199;28;88015;-83
2021/06/24 08:01:19;;;;;;;2.25;2.15;;;22.90;95.10;;;;;;4891248;28;86968;-82
2021/06/24 08:03:45;;;;;;;2.30;2.10;;;22.90;95.40;;;;;;4890683;28;87037;-81
2021/06/24 08:06:10;;;;;;;2.22;2.13;;;22.90;95.40;;;;;;4890206;28;87010;-82
2021/06/24 08:08:36;;;;;;;3.38;2.45;;;22.90;94.90;;;;;;4891431;28;86319;-83
2021/06/24 08:11:02;;;;;;;5.18;4.10;;;22.80;95.90;;;;;;4891271;28;87021;-82
2021/06/24 08:13:28;;;;;;;2.60;2.40;;;22.80;95.50;;;;;;4890275;28;86923;-84
2021/06/24 08:15:56;;;;;;;2.25;2.15;;;22.60;94.90;;;;;;4890371;28;89121;-81
2021/06/24 08:18:23;;;;;;;3.83;2.35;;;22.60;94.80;;;;;;4890875;28;86996;-83
2021/06/24 08:20:49;;;;;;;4.72;4.38;;;22.70;95.40;;;;;;4892088;28;86867;-81
2021/06/24 08:23:16;;;;;;;3.63;2.28;;;22.30;95.00;;;;;;4892467;28;87074;-82
2021/06/24 08:25:43;;;;;;;3.58;3.25;;;21.90;95.10;;;;;;4899094;28;87773;-85
2021/06/24 08:28:10;;;;;;;4.13;3.40;;;21.50;94.60;;;;;;4895400;28;87439;-82
2021/06/24 08:30:38;;;;;;;3.58;3.38;;;22.00;94.70;;;;;;4891876;28;86980;-81
2021/06/24 08:33:04;;;;;;;3.40;3.20;;;21.90;94.60;;;;;;4891460;28;86199;-84
2021/06/24 08:35:30;;;;;;;3.53;3.33;;;;;;;;;;4890289;28;87195;-83
2021/06/24 08:37:56;;;;;;;4.18;3.22;;;22.00;95.00;;;;;;4891189;28;87475;-82
2021/06/24 08:40:23;;;;;;;4.00;3.63;;;22.00;95.80;;;;;;4890862;28;87885;-84
2021/06/24 08:42:48;;;;;;;3.60;3.40;;;22.10;96.60;;;;;;4890215;28;86920;-82
2021/06/24 08:45:15;;;;;;;4.53;3.58;;;21.50;97.10;;;;;;4891176;28;87348;-82
2021/06/24 08:47:45;;;;;;;2.75;2.40;;;21.10;97.10;;;;;;4891220;28;86657;-83
2021/06/24 08:50:12;;;;;;;3.15;2.60;;;20.80;98.20;;;;;;4892296;28;86978;-82
2021/06/24 08:52:38;;;;;;;3.88;3.58;;;19.80;99.90;;;;;;4894202;28;86828;-83
2021/06/24 08:55:05;;;;;;;3.95;3.50;;;20.00;99.90;;;;;;4893890;28;87992;-83
2021/06/24 08:57:34;;;;;;;3.95;3.70;;;20.10;99.90;;;;;;4899824;28;86654;-81
2021/06/24 09:00:00;;;;;;;4.20;3.90;;;20.60;99.90;;;;;;5055761;23;87458;-82
2021/06/24 09:02:38;;;;;;;5.05;4.50;;;19.80;99.90;;;;;;4874879;28;87026;-82
2021/06/24 09:05:04;;;;;;;6.80;3.30;;;19.70;99.90;;;;;;4869153;28;88348;-80
2021/06/24 09:07:31;;;;;;;4.72;4.32;;;19.10;99.90;;;;;;4870690;29;88915;-81
2021/06/24 09:09:58;;;;;;;4.25;3.40;;;19.10;99.90;;;;;;4871171;28;86891;-81
2021/06/24 09:12:25;;;;;;;5.60;4.07;;;19.20;99.90;;;;;;4866612;28;86725;-80
2021/06/24 09:15:00;;;;;;;4.57;4.28;;;19.90;99.90;;;;;;4874110;28;88397;-82
2021/06/24 09:17:40;;;;;;;3.83;3.53;;;19.90;99.90;;;;;;4868245;29;87609;-81
2021/06/24 09:20:26;;;;;;;5.10;4.78;;;20.70;99.90;;;;;;4871493;29;86808;-79
2021/06/24 09:23:16;;;;;;;4.82;4.53;;;21.80;99.90;;;;;;4872599;28;86190;-82
2021/06/24 09:25:49;;;;;;;4.57;4.00;;;22.70;99.90;;;;;;4866886;28;87487;-82
2021/06/24 09:28:16;;;;;;;4.00;3.70;;;22.60;99.90;;;;;;4872377;28;86858;-82
2021/06/24 09:30:44;;;;;;;4.47;4.07;;;23.40;99.90;;;;;;4876034;28;87705;-83
2021/06/24 09:33:17;;;;;;;4.18;3.78;;;23.00;99.90;;;;;;4874596;28;87068;-82
2021/06/24 09:35:57;;;;;;;4.82;4.43;;;23.10;99.90;;;;;;4873997;28;87043;-81
2021/06/24 09:38:22;;;;;;;4.00;3.70;;;22.90;99.90;;;;;;4875449;29;87083;-82
2021/06/24 09:40:53;;;;;;;4.85;4.40;;;22.60;99.90;;;;;;4872487;28;86833;-83
2021/06/24 09:43:28;;;;;;;4.28;3.97;;;22.30;99.90;;;;;;4868383;28;87004;-82
2021/06/24 09:46:06;;;;;;;4.68;4.35;;;21.60;99.90;;;;;;4870244;29;87841;-83
2021/06/24 09:48:53;;;;;;;5.20;4.78;;;21.60;99.90;;;;;;4853550;29;86251;-82
2021/06/24 09:51:27;;;;;;;3.40;3.20;;;21.80;99.90;;;;;;4852906;29;86643;-82
2021/06/24 09:53:53;;;;;;;2.83;2.63;;;21.70;99.90;;;;;;4845382;29;87985;-81
2021/06/24 09:56:20;;;;;;;4.00;3.35;;;21.60;99.90;;;;;;4852662;29;87855;-83
2021/06/24 09:58:47;;;;;;;3.38;3.17;;;21.50;99.90;;;;;;4856210;29;88333;-81
2021/06/24 10:01:26;;;;;;;4.30;4.00;;;21.50;99.90;;;;;;4855991;29;86985;-82
2021/06/24 10:03:55;;;;;;;5.57;5.00;;;21.50;99.90;;;;;;4854779;29;86872;-83
2021/06/24 10:06:22;;;;;;;5.38;4.85;;;22.20;99.90;;;;;;4856074;29;87037;-82
2021/06/24 10:08:47;;;;;;;4.80;4.40;;;21.80;99.90;;;;;;4856406;29;87052;-83
2021/06/24 10:11:13;;;;;;;4.90;4.47;;;25.30;99.90;;;;;;4859337;29;86878;-83
2021/06/24 10:13:39;;;;;;;4.45;4.15;;;28.20;96.70;;;;;;4856752;29;86270;-83
2021/06/24 10:16:06;;;;;;;3.78;2.58;;;28.20;96.70;;;;;;4856932;29;87336;-83
2021/06/24 10:18:34;;;;;;;4.13;3.92;;;32.20;76.60;;;;;;4861405;29;86293;-83
2021/06/24 10:21:01;;;;;;;4.00;3.80;;;34.30;67.40;;;;;;4858086;29;87108;-83
2021/06/24 10:23:28;;;;;;;4.03;3.75;;;35.10;58.40;;;;;;4857361;29;86390;-84
2021/06/24 10:25:54;;;;;;;4.07;3.85;;;35.30;58.70;;;;;;4859660;29;87779;-83
2021/06/24 10:28:20;;;;;;;2.75;2.55;;;36.50;56.10;;;;;;4859379;29;86992;-85
2021/06/24 10:30:46;;;;;;;2.53;2.33;;;37.50;53.50;;;;;;4862602;29;86926;-84
2021/06/24 10:33:17;;;;;;;3.92;3.63;;;39.20;46.80;;;;;;4858720;29;86236;-84
2021/06/24 10:35:48;;;;;;;4.78;4.57;;;39.90;45.90;;;;;;4857821;29;87279;-82
2021/06/24 10:38:15;;;;;;;2.90;2.70;;;39.90;46.30;;;;;;4858991;29;87874;-81
2021/06/24 10:40:43;;;;;;;4.72;4.53;;;41.80;43.10;;;;;;4857055;29;86634;-83
2021/06/24 10:43:14;;;;;;;3.00;2.90;;;41.80;42.60;;;;;;4855740;29;86773;-82
2021/06/24 10:45:41;;;;;;;3.25;3.03;;;42.00;40.00;;;;;;4855711;29;88186;-82
2021/06/24 10:48:27;;;;;;;5.03;4.82;;;42.60;39.00;;;;;;4856791;29;87960;-81
2021/06/24 10:51:00;;;;;;;3.80;3.60;;;42.80;38.30;;;;;;4859626;29;86775;-82
2021/06/24 10:53:26;;;;;;;5.60;5.30;;;43.20;38.50;;;;;;4861911;29;86305;-81
2021/06/24 10:55:52;;;;;;;3.88;3.58;;;43.90;39.10;;;;;;4864156;29;87377;-82
2021/06/24 10:58:18;;;;;;;3.63;3.42;;;43.70;38.40;;;;;;4864518;29;86254;-81
2021/06/24 11:00:51;;;;;;;6.45;6.03;;;43.70;37.80;;;;;;4861897;29;86722;-83
2021/06/24 11:03:23;;;;;;;4.50;4.10;;;42.50;37.40;;;;;;4855346;29;86160;-82
2021/06/24 11:05:50;;;;;;;4.22;3.83;;;41.00;39.10;;;;;;4851320;29;86717;-83
2021/06/24 11:08:27;;;;;;;5.47;5.05;;;39.30;40.80;;;;;;4854907;29;86716;-83
2021/06/24 11:10:59;;;;;;;5.38;4.97;;;37.70;41.50;;;;;;4853170;29;87752;-83
2021/06/24 11:13:37;;;;;;;5.28;4.80;;;36.30;42.70;;;;;;4853655;29;86637;-82
2021/06/24 11:18:37;;;;;;;5.50;5.00;;;32.60;49.20;;;;;;4851600;29;87252;-82
2021/06/24 11:21:07;;;;;;;4.80;4.45;;;32.80;50.10;;;;;;4852630;29;86821;-83
2021/06/24 11:23:35;;;;;;;6.20;5.70;;;33.10;49.20;;;;;;4852924;29;86722;-82
2021/06/24 11:26:11;;;;;;;5.78;5.47;;;33.10;49.60;;;;;;4856219;29;87734;-81
2021/06/24 11:28:49;;;;;;;5.28;4.97;;;33.40;47.80;;;;;;4843953;29;86173;-81
2021/06/24 11:31:19;;;;;;;4.03;3.67;;;33.10;48.20;;;;;;4838794;29;86835;-82
2021/06/24 11:37:04;;;;;;;5.30;4.90;;;34.00;47.40;;;;;;4854919;29;88268;-82
2021/06/24 11:39:38;;;;;;;5.05;4.75;;;34.00;46.90;;;;;;4857253;29;88401;-82
2021/06/24 11:42:08;;;;;;;6.03;5.63;;;31.00;50.50;;;;;;4857782;29;86307;-81
2021/06/24 11:44:38;;;;;;;5.50;5.10;;;31.70;50.90;;;;;;4858679;29;86401;-82
2021/06/24 11:47:12;;;;;;;5.25;4.85;;;31.80;50.60;;;;;;4855894;29;87508;-83
2021/06/24 12:04:25;;;;;;;5.00;4.80;;;37.90;42.10;;;;;;4855236;29;87836;-83
2021/06/24 12:07:28;;;;;;;4.90;4.50;;;38.70;41.50;;;;;;4846299;29;87052;-83
2021/06/24 12:09:50;;;;;;;5.13;4.82;;;39.30;40.40;;;;;;4853036;29;88253;-83
2021/06/24 12:12:18;;;;;;;5.07;4.78;;;38.40;40.60;;;;;;4853963;29;86872;-83
2021/06/24 12:14:45;;;;;;;5.18;4.85;;;38.00;40.50;;;;;;4869357;29;86950;-83
2021/06/24 12:17:14;;;;;;;4.50;4.30;;;38.30;41.60;;;;;;4858226;29;87114;-84
2021/06/24 12:19:58;;;;;;;4.97;4.77;;;38.10;40.60;;;;;;4862133;29;87355;-83
2021/06/24 12:22:38;;;;;;;4.93;4.70;;;37.90;41.20;;;;;;4857006;29;86978;-83
2021/06/24 12:25:10;;;;;;;5.60;4.82;;;37.20;42.10;;;;;;4859907;29;86216;-84
2021/06/24 12:27:38;;;;;;;4.55;4.30;;;34.70;44.60;;;;;;4858615;29;86776;-84
2021/06/24 12:30:21;;;;;;;2.92;2.72;;;34.50;44.50;;;;;;4857039;29;88547;-83
2021/06/24 12:32:56;;;;;;;4.95;4.68;;;36.00;42.40;;;;;;4866235;29;88425;-82
2021/06/24 12:35:49;;;;;;;4.63;4.40;;;37.10;40.30;;;;;;4863600;29;87154;-82
2021/06/24 12:38:18;;;;;;;4.53;4.22;;;36.00;41.30;;;;;;4865203;29;88114;-83
2021/06/24 12:40:47;;;;;;;4.47;4.17;;;34.40;43.90;;;;;;4864035;29;86705;-82
2021/06/24 12:43:33;;;;;;;3.95;3.75;;;35.20;44.30;;;;;;4864492;29;86730;-84
2021/06/24 12:46:01;;;;;;;4.30;4.10;;;36.80;42.20;;;;;;4862794;29;88206;-84
2021/06/24 12:48:27;;;;;;;4.57;4.38;;;37.40;41.10;;;;;;4858616;29;86100;-84
2021/06/24 12:50:53;;;;;;;2.72;2.63;;;38.30;41.00;;;;;;4859812;29;88033;-84
2021/06/24 12:53:28;;;;;;;4.05;3.88;;;38.40;37.80;;;;;;4862126;29;86654;-84
2021/06/24 12:55:55;;;;;;;4.10;3.90;;;37.40;39.50;;;;;;4851033;29;87897;-84
2021/06/24 12:58:27;;;;;;;3.88;3.78;;;36.80;41.30;;;;;;4855905;29;87126;-84
2021/06/24 13:01:24;;;;;;;4.68;4.38;;;36.10;41.10;;;;;;4858924;29;87583;-84
2021/06/24 13:03:52;;;;;;;4.10;3.90;;;35.10;42.00;;;;;;4856321;29;88411;-84
2021/06/24 13:06:25;;;;;;;4.38;4.18;;;34.80;45.10;;;;;;4857634;29;87050;-84
2021/06/24 13:09:02;;;;;;;4.57;4.28;;;35.60;43.10;;;;;;4849781;29;87039;-85
2021/06/24 13:12:07;;;;;;;4.03;3.83;;;36.90;42.60;;;;;;4858546;29;87658;-85
2021/06/24 13:14:37;;;;;;;4.28;4.07;;;37.80;39.90;;;;;;4854979;29;86643;-85
2021/06/24 13:17:04;;;;;;;4.45;4.25;;;37.60;39.90;;;;;;4858824;29;87759;-84
2021/06/24 13:19:40;;;;;;;4.60;4.30;;;37.70;41.70;;;;;;4856639;29;87148;-85
2021/06/24 13:22:14;;;;;;;4.70;4.40;;;37.90;42.90;;;;;;4856698;29;88341;-84
2021/06/24 13:25:17;;;;;;;4.60;4.30;;;38.10;41.10;;;;;;4854208;29;87091;-84
2021/06/24 13:27:43;;;;;;;4.53;4.28;;;37.90;41.70;;;;;;4855222;29;87076;-83
2021/06/24 13:30:15;;;;;;;4.43;4.22;;;37.50;42.10;;;;;;4851172;29;86970;-84
2021/06/24 13:32:50;;;;;;;4.40;4.20;;;36.90;42.90;;;;;;4854820;29;87271;-84
2021/06/24 13:35:36;;;;;;;4.60;4.30;;;36.50;43.10;;;;;;4854922;29;86981;-84
2021/06/24 13:38:14;;;;;;;4.43;4.18;;;36.00;40.90;;;;;;4854785;29;86864;-84
2021/06/24 13:40:45;;;;;;;4.10;3.90;;;35.60;43.40;;;;;;4855413;29;86205;-84
2021/06/24 13:43:29;;;;;;;2.33;2.10;;;35.00;43.30;;;;;;4856826;29;86970;-85
2021/06/24 13:45:59;;;;;;;3.88;3.67;;;34.10;43.90;;;;;;4856552;29;88210;-84
2021/06/24 13:48:26;;;;;;;3.50;3.40;;;33.50;44.70;;;;;;4853656;29;88375;-84
2021/06/24 13:50:52;;;;;;;3.92;3.72;;;33.20;45.30;;;;;;4855767;29;87131;-83
2021/06/24 13:53:19;;;;;;;4.20;4.00;;;32.40;46.60;;;;;;4854099;29;87318;-84
2021/06/24 13:55:46;;;;;;;4.05;3.75;;;31.70;47.10;;;;;;4857844;29;86959;-84
2021/06/24 13:58:13;;;;;;;4.20;4.00;;;31.20;48.00;;;;;;4850201;29;87242;-84
2021/06/24 14:00:39;;;;;;;3.78;3.58;;;30.90;48.20;;;;;;4856059;29;87037;-82
2021/06/24 14:03:07;;;;;;;4.10;3.90;;;29.90;48.60;;;;;;4856395;29;87962;-83
2021/06/24 14:05:36;;;;;;;3.72;3.53;;;30.00;49.20;;;;;;4854265;29;86183;-84
2021/06/24 14:08:03;;;;;;;3.63;3.42;;;29.50;49.70;;;;;;4856862;29;87072;-83
2021/06/24 14:10:29;;;;;;;3.60;3.30;;;29.00;50.00;;;;;;4855785;29;87071;-83
2021/06/24 14:12:55;;;;;;;3.47;3.25;;;28.90;50.40;;;;;;4855451;29;87976;-82
2021/06/24 14:15:22;;;;;;;3.40;3.20;;;28.30;50.30;;;;;;4857519;29;87092;-84
2021/06/24 14:17:48;;;;;;;3.33;3.03;;;28.20;52.20;;;;;;4857735;29;87576;-80
2021/06/24 14:20:14;;;;;;;3.78;3.65;;;28.10;52.40;;;;;;4857579;29;86763;-84
2021/06/24 14:22:40;;;;;;;3.65;3.45;;;28.00;51.70;;;;;;4855445;29;91311;-84
2021/06/24 14:25:07;;;;;;;3.50;3.30;;;28.00;52.30;;;;;;4853555;29;86975;-84
2021/06/24 14:27:35;;;;;;;3.63;3.42;;;28.10;52.80;;;;;;4855515;29;86579;-84
2021/06/24 14:30:02;;;;;;;3.60;3.40;;;28.00;52.10;;;;;;4857458;29;85830;-84
2021/06/24 14:32:28;;;;;;;3.58;3.38;;;27.80;52.30;;;;;;4856221;29;86621;-85
2021/06/24 14:34:54;;;;;;;3.80;3.50;;;28.20;52.70;;;;;;4856332;29;87186;-83
2021/06/24 14:37:19;;;;;;;3.80;3.50;;;28.00;52.90;;;;;;4857142;29;88299;-83
2021/06/24 14:39:47;;;;;;;3.70;3.50;;;28.00;53.40;;;;;;4856421;29;87124;-86
2021/06/24 14:42:13;;;;;;;3.92;3.67;;;27.90;53.50;;;;;;4858408;29;87444;-85
2021/06/24 14:44:38;;;;;;;4.03;3.78;;;27.90;54.40;;;;;;4853675;29;87971;-85
2021/06/24 14:47:04;;;;;;;3.92;3.63;;;27.80;54.50;;;;;;4854297;29;87104;-84
2021/06/24 14:49:30;;;;;;;4.13;3.83;;;27.70;55.00;;;;;;4853787;29;86774;-83
2021/06/24 14:51:56;;;;;;;4.40;4.10;;;27.70;55.20;;;;;;4858195;29;87622;-84
2021/06/24 14:54:22;;;;;;;4.70;4.15;;;27.20;55.40;;;;;;4855800;28;87339;-83
2021/06/24 14:56:48;;;;;;;4.50;4.13;;;27.30;55.80;;;;;;4856970;29;87020;-83
2021/06/24 14:59:14;;;;;;;4.35;4.05;;;27.30;56.40;;;;;;4858273;29;86704;-83
2021/06/24 15:01:39;;;;;;;4.50;4.20;;;27.00;57.40;;;;;;4854815;29;88153;-81
2021/06/24 15:04:05;;;;;;;4.70;4.40;;;27.00;57.40;;;;;;4854326;29;88070;-83
2021/06/24 15:06:31;;;;;;;4.82;4.43;;;26.80;57.70;;;;;;4853809;29;87005;-84
2021/06/24 15:08:59;;;;;;;4.72;4.43;;;26.70;58.10;;;;;;4851447;29;87051;-83
2021/06/24 15:11:25;;;;;;;4.70;4.40;;;26.20;59.20;;;;;;4854768;29;87964;-83
2021/06/24 15:13:52;;;;;;;4.68;4.38;;;26.30;59.80;;;;;;4854365;29;87641;-83
2021/06/24 15:16:19;;;;;;;4.60;4.30;;;;;;;;;;4853820;29;86994;-84
2021/06/24 15:18:44;;;;;;;4.57;4.28;;;26.20;59.60;;;;;;4854521;29;86110;-83
2021/06/24 15:21:10;;;;;;;4.65;4.35;;;26.10;61.00;;;;;;4852801;29;87233;-84
2021/06/24 15:23:36;;;;;;;4.50;4.20;;;26.00;61.50;;;;;;4852024;29;87087;-83
2021/06/24 15:26:03;;;;;;;4.53;4.22;;;26.00;61.70;;;;;;4850793;29;88386;-85
2021/06/24 15:28:29;;;;;;;4.55;4.20;;;26.00;61.70;;;;;;4846307;29;87163;-84
2021/06/24 15:30:58;;;;;;;4.60;4.30;;;26.00;62.10;;;;;;4852227;29;86964;-83
2021/06/24 15:33:24;;;;;;;8.77;5.65;;;26.20;62.20;;;;;;4851081;29;87894;-84
2021/06/24 15:35:50;;;;;;;4.60;4.30;;;26.20;62.40;;;;;;4852576;29;86723;-83
2021/06/24 15:38:16;;;;;;;5.45;4.15;;;26.30;62.60;;;;;;4851836;29;86792;-83
2021/06/24 15:40:41;;;;;;;4.68;4.38;;;26.40;62.70;;;;;;4852325;29;87526;-83
2021/06/24 15:43:07;;;;;;;4.80;4.55;;;26.40;62.10;;;;;;4853892;29;86751;-83
2021/06/24 15:45:33;;;;;;;2.67;2.47;;;26.40;61.70;;;;;;4852937;29;86764;-83
2021/06/24 15:47:59;;;;;;;4.72;4.35;;;26.30;62.90;;;;;;4851631;29;87040;-83
2021/06/24 15:50:35;;;;;;;3.95;3.75;;;26.30;61.40;;;;;;4850813;29;87880;-83
2021/06/24 15:53:03;;;;;;;4.22;3.95;;;26.30;60.60;;;;;;4848693;29;88171;-82
2021/06/24 15:55:37;;;;;;;4.72;4.43;;;26.20;60.70;;;;;;4856860;29;86857;-84
2021/06/24 15:58:07;;;;;;;5.18;4.68;;;26.00;60.40;;;;;;4856627;29;86661;-84
2021/06/24 16:00:33;;;;;;;4.17;3.87;;;25.80;60.80;;;;;;4812100;29;1284074;-84
2021/06/24 16:02:58;;;;;;;4.72;4.43;;;25.80;62.20;;;;;;4854732;29;87004;-84
2021/06/24 16:05:24;;;;;;;4.60;4.40;;;25.80;63.60;;;;;;4856146;29;87029;-84
2021/06/24 16:07:50;;;;;;;4.25;4.05;;;25.80;63.70;;;;;;4856555;29;86309;-84
2021/06/24 16:10:16;;;;;;;4.80;4.40;;;25.80;63.20;;;;;;4850473;29;88752;-83
2021/06/24 16:12:42;;;;;;;4.43;4.22;;;25.60;63.10;;;;;;4856111;29;86881;-84
2021/06/24 16:15:09;;;;;;;4.80;4.50;;;25.80;63.10;;;;;;4856012;29;87619;-83
2021/06/24 16:17:37;;;;;;;4.97;4.68;;;25.60;61.90;;;;;;4849600;29;86877;-84
2021/06/24 16:20:06;;;;;;;4.55;4.18;;;25.60;62.60;;;;;;4856214;29;87254;-84
2021/06/24 16:22:31;;;;;;;4.45;4.15;;;25.60;63.70;;;;;;4855484;29;87458;-83
2021/06/24 16:24:57;;;;;;;5.43;5.03;;;25.40;63.30;;;;;;4851768;29;86998;-83
2021/06/24 16:27:23;;;;;;;5.57;5.18;;;25.60;63.40;;;;;;4854961;29;86935;-84
2021/06/24 16:29:49;;;;;;;5.40;5.00;;;25.30;63.20;;;;;;4850586;29;87193;-82